Olympia, Washington
Current Conditions -  °F | °C
As of 9:18 PM on Wednesday 17 Dec 2014 (Local Time) from KOLM Reporting Station
Overcast Overcast  
Wind Chill:   Ceiling: 1400
Heat Index:   Visibility: 10mi
Dew Point:   Wind: 3mph
Humidity: 96%   Direction: 180°S
Pressure: 29.91"   Gusts: NA
Location:  47.04°N, 122.89°W
Report Text: KOLM 180518Z AUTO 18003KT 10SM OVC014 07/06 A2991 RMK AO2 T00670061
Loading
Personal Weather Stations






























Interactive Weather Map New forecast layout! Learn more

10-Day Weather Forecast

Advertisements
Track Severe Weather on mobile